Time;durP1;ratioP1;P1;durP2;ratioP2;P2;SDS_P1;SDS_P2;PMS_P1;PMS_P2;Temp;Humidity;BMP_temperature;BMP_pressure;BME280_temperature;BME280_humidity;BME280_pressure;Samples;Min_cycle;Max_cycle;Signal;HPM_P1;HPM_P2
2021/03/24 00:02:08;;;;;;;26.90;21.67;;;;;;;6.39;60.81;101099.69;10268948;28;21692;-71
2021/03/24 00:07:11;;;;;;;25.07;20.73;;;;;;;6.28;60.83;101109.00;10261340;28;20054;-72
2021/03/24 00:12:12;;;;;;;32.97;22.95;;;;;;;6.18;61.02;101107.72;10267909;28;20142;-72
2021/03/24 00:17:13;;;;;;;26.52;21.42;;;;;;;6.14;61.24;101106.16;10274270;28;20523;-70
2021/03/24 00:22:14;;;;;;;27.33;22.08;;;;;;;6.06;61.44;101097.75;10287355;28;20155;-72
2021/03/24 00:27:15;;;;;;;29.52;23.80;;;;;;;6.03;61.40;101111.13;10277972;28;20051;-71
2021/03/24 00:32:16;;;;;;;27.88;21.55;;;;;;;5.91;61.60;101108.06;10265226;28;20524;-71
2021/03/24 00:37:17;;;;;;;25.50;21.38;;;;;;;5.90;61.78;101109.03;10274136;28;20511;-71
2021/03/24 00:42:18;;;;;;;26.95;22.10;;;;;;;5.78;62.06;101105.19;10267999;28;20059;-72
2021/03/24 00:47:19;;;;;;;29.63;23.63;;;;;;;5.65;62.15;101107.53;10268876;28;20058;-71
2021/03/24 00:52:20;;;;;;;32.88;23.38;;;;;;;5.63;62.57;101105.88;10263296;28;20200;-71
2021/03/24 00:57:22;;;;;;;30.30;22.83;;;;;;;5.53;62.47;101108.09;10269340;28;20082;-71
2021/03/24 01:02:23;;;;;;;27.15;21.52;;;;;;;5.43;62.80;101093.59;10272414;28;20154;-71
2021/03/24 01:07:24;;;;;;;26.52;20.20;;;;;;;5.35;63.09;101090.47;10276431;28;20050;-71
2021/03/24 01:12:25;;;;;;;28.80;21.02;;;;;;;5.35;63.28;101090.47;10275944;28;20064;-71
2021/03/24 01:17:26;;;;;;;28.63;21.45;;;;;;;5.29;63.72;101092.44;10273240;28;20055;-71
2021/03/24 01:22:27;;;;;;;27.00;21.70;;;;;;;5.23;63.44;101082.16;10270808;28;20338;-72
2021/03/24 01:27:28;;;;;;;27.25;22.00;;;;;;;5.31;63.40;101101.16;10269025;28;20089;-71
2021/03/24 01:32:29;;;;;;;28.85;21.77;;;;;;;5.15;63.81;101105.41;10265590;28;20509;-72
2021/03/24 01:37:30;;;;;;;24.73;21.23;;;;;;;5.09;63.98;101097.75;10266550;28;20082;-72
2021/03/24 01:42:32;;;;;;;26.73;20.70;;;;;;;5.08;64.02;101094.25;10266956;28;20450;-73
2021/03/24 01:47:33;;;;;;;26.45;21.15;;;;;;;5.10;64.00;101092.41;10264258;28;20054;-72
2021/03/24 01:52:34;;;;;;;24.05;19.70;;;;;;;5.05;64.18;101096.19;10266885;28;20059;-71
2021/03/24 01:57:38;;;;;;;29.20;23.10;;;;;;;4.93;64.41;101090.50;10263592;28;20066;-71
2021/03/24 02:02:39;;;;;;;26.77;19.65;;;;;;;4.89;64.33;101077.50;10265012;28;20062;-70
2021/03/24 02:07:53;;;;;;;25.33;20.15;;;;;;;4.80;64.89;101076.13;10261528;28;20461;-71
2021/03/24 02:13:00;;;;;;;26.05;20.75;;;;;;;4.87;64.58;101084.63;10313812;28;20566;-71
2021/03/24 02:18:03;;;;;;;26.80;20.55;;;;;;;4.77;64.84;101079.78;10307175;28;20455;-70
2021/03/24 02:23:19;;;;;;;22.95;18.83;;;;;;;4.83;64.84;101083.06;10304221;28;20515;-71
2021/03/24 02:28:21;;;;;;;29.13;20.90;;;;;;;4.76;64.90;101085.13;10311563;28;20230;-71
2021/03/24 02:33:34;;;;;;;24.02;20.25;;;;;;;4.76;65.05;101082.47;10309651;28;20078;-68
2021/03/24 02:38:39;;;;;;;26.75;21.05;;;;;;;4.72;65.17;101075.59;10318210;28;20153;-71
2021/03/24 02:43:42;;;;;;;27.63;21.27;;;;;;;4.75;65.30;101073.69;10264273;28;20051;-72
2021/03/24 02:48:45;;;;;;;27.27;22.17;;;;;;;4.64;65.26;101067.16;10258215;28;20421;-71
2021/03/24 02:53:48;;;;;;;24.33;20.17;;;;;;;4.65;65.35;101058.31;10262888;28;21016;-70
2021/03/24 02:58:52;;;;;;;25.73;20.48;;;;;;;4.70;65.35;101066.88;10263367;28;20101;-72
2021/03/24 03:04:10;;;;;;;26.30;21.42;;;;;;;4.69;65.44;101070.47;10267397;28;20498;-72
2021/03/24 03:09:24;;;;;;;27.77;21.90;;;;;;;4.67;65.56;101070.53;10274474;28;20036;-70
2021/03/24 03:14:55;;;;;;;27.67;21.73;;;;;;;4.55;66.10;101074.53;10273685;28;20077;-71
2021/03/24 03:20:08;;;;;;;25.38;19.45;;;;;;;4.51;66.30;101072.94;10253083;28;20110;-70
2021/03/24 03:25:17;;;;;;;30.27;21.73;;;;;;;4.47;66.58;101071.34;10276156;28;20120;-71
2021/03/24 03:30:22;;;;;;;25.40;19.95;;;;;;;4.43;66.62;101069.78;10265203;28;20106;-70
2021/03/24 03:35:25;;;;;;;27.20;20.88;;;;;;;4.51;66.43;101062.41;10273100;28;20126;-71
2021/03/24 03:40:29;;;;;;;27.95;22.05;;;;;;;4.48;66.47;101073.09;10246624;28;20465;-70
2021/03/24 03:45:31;;;;;;;27.35;21.20;;;;;;;4.39;67.14;101078.75;10272006;28;20089;-71
2021/03/24 03:50:32;;;;;;;28.05;22.65;;;;;;;4.39;67.02;101060.28;10267445;28;20047;-71
2021/03/24 03:55:48;;;;;;;33.20;23.42;;;;;;;4.35;67.13;101069.25;10268498;28;20051;-71
2021/03/24 04:01:16;;;;;;;29.63;22.25;;;;;;;4.30;66.99;101069.44;10301132;28;20105;-70
2021/03/24 04:06:23;;;;;;;24.58;20.92;;;;;;;4.25;67.18;101074.06;10303226;28;20502;-71
2021/03/24 04:11:28;;;;;;;29.10;21.60;;;;;;;4.18;67.25;101065.53;10316696;28;20074;-70
2021/03/24 04:16:30;;;;;;;26.95;20.55;;;;;;;4.17;66.93;101063.78;10314038;28;20475;-71
2021/03/24 04:21:34;;;;;;;20.85;18.05;;;;;;;4.13;67.05;101071.88;10311519;28;20038;-71
2021/03/24 04:26:43;;;;;;;31.95;23.77;;;;;;;4.09;67.11;101076.44;10313520;28;20065;-71
2021/03/24 04:31:54;;;;;;;25.20;21.42;;;;;;;4.01;67.40;101068.00;10316297;28;20123;-70
2021/03/24 04:37:02;;;;;;;27.25;21.17;;;;;;;3.89;67.57;101064.06;10319678;28;20049;-70
2021/03/24 04:42:46;;;;;;;26.48;21.23;;;;;;;3.92;67.78;101068.34;10297190;28;20105;-71
2021/03/24 04:47:52;;;;;;;30.10;22.38;;;;;;;3.91;67.46;101074.56;10296368;28;20042;-70
2021/03/24 04:52:58;;;;;;;29.40;23.35;;;;;;;3.79;67.40;101068.81;10306500;28;20039;-71
2021/03/24 04:58:17;;;;;;;28.90;22.10;;;;;;;3.68;67.82;101055.25;10303316;28;20049;-74
2021/03/24 05:03:24;;;;;;;27.98;21.65;;;;;;;3.75;67.75;101076.91;10295102;28;20046;-69
2021/03/24 05:08:34;;;;;;;26.52;21.48;;;;;;;3.66;67.77;101063.19;10268811;28;20082;-71
2021/03/24 05:13:44;;;;;;;27.33;21.60;;;;;;;3.58;67.92;101059.16;10282855;28;20078;-71
2021/03/24 05:18:52;;;;;;;24.42;20.20;;;;;;;3.64;67.95;101072.06;10265951;28;20494;-71
2021/03/24 05:23:57;;;;;;;27.65;22.08;;;;;;;3.64;67.64;101079.97;10271613;28;20051;-70
2021/03/24 05:29:04;;;;;;;30.85;21.58;;;;;;;3.58;67.54;101074.94;10284055;28;20047;-71
2021/03/24 05:34:11;;;;;;;30.38;21.40;;;;;;;3.63;67.69;101089.63;10269599;28;20047;-71
2021/03/24 05:39:12;;;;;;;30.00;22.55;;;;;;;3.62;67.61;101103.72;10268836;28;20537;-71
2021/03/24 05:44:42;;;;;;;29.50;21.95;;;;;;;3.65;67.65;101097.50;10268847;28;20043;-71
2021/03/24 05:50:20;;;;;;;30.08;22.55;;;;;;;3.67;67.79;101108.81;10265624;28;20537;-72
2021/03/24 05:55:54;;;;;;;28.80;21.17;;;;;;;3.65;67.79;101098.34;10300570;28;20050;-72
2021/03/24 06:01:05;;;;;;;29.17;22.50;;;;;;;3.85;67.09;101110.72;10290148;28;20559;-71
2021/03/24 06:06:22;;;;;;;40.15;27.73;;;;;;;3.89;66.80;101107.06;10283462;28;20137;-71
2021/03/24 06:11:33;;;;;;;50.08;33.38;;;;;;;4.01;66.36;101111.00;10290322;28;20050;-70
2021/03/24 06:17:10;;;;;;;35.38;25.42;;;;;;;4.02;66.65;101115.34;10300297;28;20098;-70
2021/03/24 06:22:28;;;;;;;28.88;23.27;;;;;;;4.07;66.61;101094.94;10258215;28;20142;-70
2021/03/24 06:27:41;;;;;;;25.42;20.85;;;;;;;4.21;66.12;101097.00;10247988;28;20713;-70
2021/03/24 06:32:58;;;;;;;28.30;21.25;;;;;;;4.32;66.07;101101.00;10244600;28;20050;-69
2021/03/24 06:38:39;;;;;;;28.40;21.83;;;;;;;4.51;65.73;101104.59;10245322;28;20055;-70
2021/03/24 06:44:05;;;;;;;28.40;21.65;;;;;;;4.67;64.83;101089.00;10287990;28;20054;-68
2021/03/24 06:49:24;;;;;;;27.25;19.90;;;;;;;4.88;64.58;101096.88;10287463;28;20183;-72
2021/03/24 06:55:22;;;;;;;24.98;20.40;;;;;;;4.88;64.26;101105.69;10292402;28;20097;-71
2021/03/24 07:00:45;;;;;;;30.75;22.40;;;;;;;5.12;63.80;101110.81;10267401;28;20373;-72
2021/03/24 07:06:05;;;;;;;28.95;22.08;;;;;;;5.24;63.49;101114.66;10285452;28;21426;-72
2021/03/24 07:11:21;;;;;;;26.75;20.65;;;;;;;5.37;63.03;101110.56;10297903;28;20077;-71
2021/03/24 07:16:49;;;;;;;25.17;20.95;;;;;;;5.63;62.60;101114.66;10297990;28;20069;-71
2021/03/24 07:22:00;;;;;;;28.25;22.60;;;;;;;5.92;61.67;101112.44;10284472;28;20562;-72
2021/03/24 07:27:23;;;;;;;28.20;22.90;;;;;;;6.09;61.44;101109.03;10292875;28;20134;-72
2021/03/24 07:32:48;;;;;;;32.53;21.92;;;;;;;6.48;60.79;101120.38;10299745;28;20102;-72
2021/03/24 07:38:38;;;;;;;28.33;21.15;;;;;;;6.71;60.00;101117.44;10299109;28;20168;-73
2021/03/24 07:44:20;;;;;;;29.55;23.42;;;;;;;7.01;59.00;101129.19;10223534;28;20176;-72
2021/03/24 07:49:38;;;;;;;29.23;22.77;;;;;;;7.16;59.21;101117.81;10163494;29;20135;-72
2021/03/24 07:55:35;;;;;;;34.67;23.92;;;;;;;7.46;57.88;101124.19;10281090;28;20070;-73
2021/03/24 08:00:50;;;;;;;32.08;22.65;;;;;;;7.82;57.78;101133.75;10252002;28;20105;-73
2021/03/24 08:06:16;;;;;;;36.67;24.87;;;;;;;8.23;56.54;101130.59;10291852;28;20098;-73
2021/03/24 08:11:37;;;;;;;32.95;23.75;;;;;;;8.31;55.86;101105.31;10294921;28;20135;-71
2021/03/24 08:16:38;;;;;;;34.03;23.77;;;;;;;8.79;54.93;101118.50;10290531;28;20089;-73
2021/03/24 08:21:58;;;;;;;34.15;25.10;;;;;;;8.81;54.22;101121.06;10300367;28;20172;-73
2021/03/24 08:27:07;;;;;;;27.75;21.60;;;;;;;8.90;54.57;101114.34;10294905;28;20121;-73
2021/03/24 08:32:43;;;;;;;36.10;24.17;;;;;;;9.06;53.08;101114.31;10294535;28;20122;-73
2021/03/24 08:38:01;;;;;;;31.45;23.45;;;;;;;9.08;52.99;101115.06;10299270;28;20188;-73
2021/03/24 08:43:27;;;;;;;30.42;24.77;;;;;;;9.64;52.46;101104.53;10297891;28;20050;-74
2021/03/24 08:48:53;;;;;;;30.02;25.05;;;;;;;9.76;51.92;101095.78;10284715;28;20129;-72
2021/03/24 08:54:00;;;;;;;30.42;23.35;;;;;;;10.01;50.96;101095.06;10286429;28;20113;-73
2021/03/24 08:59:27;;;;;;;28.98;23.52;;;;;;;10.38;51.19;101095.34;10308553;28;20078;-72
2021/03/24 09:04:43;;;;;;;29.13;24.27;;;;;;;10.85;49.60;101071.78;10302560;28;20101;-73
2021/03/24 09:10:19;;;;;;;30.30;24.40;;;;;;;11.62;47.01;101085.06;10282726;28;20038;-73
2021/03/24 09:15:32;;;;;;;29.77;23.10;;;;;;;11.82;47.57;101072.09;10284658;28;20845;-73
2021/03/24 09:21:04;;;;;;;28.80;23.40;;;;;;;12.00;46.21;101080.63;10288857;28;20141;-73
2021/03/24 09:26:20;;;;;;;26.95;23.73;;;;;;;12.52;45.40;101075.84;10274109;28;20472;-73
2021/03/24 09:31:55;;;;;;;28.70;21.83;;;;;;;13.12;42.99;101078.44;10293917;28;20045;-75
2021/03/24 09:37:02;;;;;;;27.42;21.75;;;;;;;13.13;43.02;101072.13;10291058;28;20057;-73
2021/03/24 09:42:15;;;;;;;27.60;22.42;;;;;;;13.87;41.83;101087.66;10299147;28;20236;-73
2021/03/24 09:47:26;;;;;;;27.45;21.27;;;;;;;14.60;40.10;101074.53;10341058;28;20046;-74
2021/03/24 09:52:46;;;;;;;25.92;21.50;;;;;;;14.98;39.50;101070.44;10331560;28;20054;-72
2021/03/24 09:57:53;;;;;;;27.88;21.77;;;;;;;15.39;38.68;101060.63;10292617;28;20046;-73
2021/03/24 10:03:02;;;;;;;27.77;20.77;;;;;;;15.61;38.58;101064.06;10293919;28;20051;-73
2021/03/24 10:08:13;;;;;;;28.67;21.05;;;;;;;16.59;35.63;101046.25;10284579;28;20089;-73
2021/03/24 10:13:29;;;;;;;27.45;21.20;;;;;;;16.70;35.54;101042.56;10283915;28;20047;-73
2021/03/24 10:18:46;;;;;;;26.90;21.23;;;;;;;19.69;30.90;101038.84;10290371;28;20080;-74
2021/03/24 10:23:54;;;;;;;21.20;18.33;;;;;;;22.48;25.14;101022.94;10264320;28;20049;-73
2021/03/24 10:29:07;;;;;;;20.83;18.63;;;;;;;23.84;23.90;101029.00;10275986;28;20116;-74
2021/03/24 10:34:27;;;;;;;18.55;16.25;;;;;;;22.39;24.92;101024.88;10287322;28;20090;-74
2021/03/24 10:39:44;;;;;;;18.27;16.30;;;;;;;20.36;27.34;101019.03;10286365;28;20116;-74
2021/03/24 10:44:56;;;;;;;19.50;16.63;;;;;;;20.61;28.15;101011.75;10285914;28;20049;-74
2021/03/24 10:50:45;;;;;;;20.40;18.00;;;;;;;24.16;23.45;101010.53;10287362;28;20086;-74
2021/03/24 10:56:00;;;;;;;19.48;16.38;;;;;;;27.41;19.42;100999.09;10246925;28;20507;-73
2021/03/24 11:01:16;;;;;;;17.13;15.30;;;;;;;29.25;17.32;100995.34;10286650;28;20133;-72
2021/03/24 11:06:31;;;;;;;18.73;15.85;;;;;;;30.91;15.89;100984.75;10282925;28;20047;-72
2021/03/24 11:11:39;;;;;;;15.05;13.65;;;;;;;31.80;14.43;100979.94;10281495;28;20081;-74
2021/03/24 11:17:11;;;;;;;16.98;15.23;;;;;;;32.32;14.27;100977.00;10284250;28;20217;-72
2021/03/24 11:22:28;;;;;;;17.55;14.90;;;;;;;33.26;13.16;100966.22;10250029;28;20498;-73
2021/03/24 11:27:37;;;;;;;15.55;14.07;;;;;;;32.41;13.48;100960.88;10240003;28;20066;-73
2021/03/24 11:32:51;;;;;;;16.52;14.93;;;;;;;34.25;12.70;100961.41;10245358;28;20401;-74
2021/03/24 11:38:01;;;;;;;16.58;14.60;;;;;;;35.72;11.77;100955.97;10247692;28;20061;-73
2021/03/24 11:43:07;;;;;;;15.38;14.05;;;;;;;36.10;11.32;100944.63;10243708;28;20106;-74
2021/03/24 11:48:33;;;;;;;15.97;14.57;;;;;;;36.76;10.85;100940.13;10241527;28;20225;-74
2021/03/24 11:53:50;;;;;;;17.00;15.50;;;;;;;36.72;10.70;100919.56;10249314;28;20078;-74
2021/03/24 11:59:08;;;;;;;15.10;13.20;;;;;;;37.53;9.91;100925.00;10243276;28;20082;-73
2021/03/24 12:04:46;;;;;;;15.93;14.32;;;;;;;36.94;10.17;100917.28;10249621;22;20209;-67
2021/03/24 12:09:47;;;;;;;15.38;13.98;;;;;;;36.95;10.32;100905.06;10277292;28;20078;-67
2021/03/24 12:15:23;;;;;;;14.48;13.07;;;;;;;36.39;10.26;100885.88;10272902;28;20422;-67
2021/03/24 12:20:24;;;;;;;15.93;14.52;;;;;;;37.12;10.16;100882.50;10274910;28;20054;-67
2021/03/24 12:25:29;;;;;;;14.93;13.43;;;;;;;37.75;9.96;100891.28;10276242;28;20686;-67
2021/03/24 12:30:47;;;;;;;15.27;14.05;;;;;;;37.75;9.75;100883.75;10237204;28;20050;-69
2021/03/24 12:36:03;;;;;;;14.73;13.52;;;;;;;38.67;8.93;100883.94;10269913;28;20097;-67
2021/03/24 12:41:04;;;;;;;15.02;13.55;;;;;;;38.18;9.15;100870.03;10273973;28;20156;-67
2021/03/24 12:46:15;;;;;;;15.98;14.32;;;;;;;38.11;9.54;100869.53;10284636;28;20066;-66
2021/03/24 12:51:26;;;;;;;14.57;13.27;;;;;;;38.65;8.70;100861.16;10275765;28;20489;-67
2021/03/24 12:56:39;;;;;;;15.57;14.05;;;;;;;38.25;9.23;100853.00;10272336;28;21366;-67
2021/03/24 13:01:44;;;;;;;15.18;13.95;;;;;;;39.15;8.59;100838.50;10274621;28;20061;-67
2021/03/24 13:07:25;;;;;;;16.08;14.57;;;;;;;38.60;9.02;100837.00;10267820;28;20062;-68
2021/03/24 13:12:52;;;;;;;15.30;13.88;;;;;;;36.87;9.80;100829.94;10266297;28;20471;-66
2021/03/24 13:18:01;;;;;;;14.30;12.90;;;;;;;37.45;9.78;100818.19;10232318;28;20055;-66
2021/03/24 13:23:02;;;;;;;;;;;;;;;37.41;10.06;100815.16;10269738;28;20050;-67
2021/03/24 13:28:26;;;;;;;15.02;13.73;;;;;;;36.91;9.92;100803.31;10237446;28;19930;-68
2021/03/24 13:33:43;;;;;;;16.52;15.13;;;;;;;35.58;10.61;100799.81;10236901;28;20489;-67
2021/03/24 13:38:53;;;;;;;14.95;13.63;;;;;;;34.06;12.18;100802.69;10268510;28;20059;-67
2021/03/24 13:44:11;;;;;;;15.32;13.93;;;;;;;29.66;15.42;100794.56;10268165;28;20055;-66
2021/03/24 13:49:18;;;;;;;14.00;12.75;;;;;;;27.85;17.70;100791.41;10267948;28;20058;-66
2021/03/24 13:54:33;;;;;;;16.30;14.77;;;;;;;26.35;19.06;100788.09;10267330;28;20149;-62
2021/03/24 13:59:40;;;;;;;17.85;16.05;;;;;;;24.75;20.85;100771.69;10270352;28;20051;-63
2021/03/24 14:05:37;;;;;;;18.65;16.48;;;;;;;24.26;21.39;100768.97;10268959;28;20085;-64
2021/03/24 14:10:47;;;;;;;16.25;14.55;;;;;;;23.79;21.35;100765.91;10207824;28;20071;-63
2021/03/24 14:15:54;;;;;;;17.85;16.13;;;;;;;23.00;22.31;100757.88;10223916;28;20058;-64
2021/03/24 14:21:10;;;;;;;19.30;17.02;;;;;;;22.60;23.58;100750.16;10229125;28;20122;-63
2021/03/24 14:26:14;;;;;;;16.95;15.15;;;;;;;22.31;23.42;100748.28;10233883;28;20058;-64
2021/03/24 14:31:26;;;;;;;17.48;15.60;;;;;;;21.67;24.75;100742.38;10241209;28;20063;-62
2021/03/24 14:36:32;;;;;;;20.70;18.38;;;;;;;21.15;25.27;100727.78;10230940;28;20172;-64
2021/03/24 14:41:44;;;;;;;20.83;17.35;;;;;;;20.48;26.71;100734.59;10221479;28;20610;-65
2021/03/24 14:46:51;;;;;;;18.73;15.70;;;;;;;20.07;26.83;100734.78;10225759;28;20502;-62
2021/03/24 14:52:04;;;;;;;17.45;15.02;;;;;;;19.85;26.97;100733.66;10229557;28;20050;-62
2021/03/24 14:57:11;;;;;;;18.17;15.35;;;;;;;19.33;28.02;100715.97;10264504;28;20098;-62
2021/03/24 15:02:25;;;;;;;18.95;16.33;;;;;;;19.05;27.76;100729.81;10268975;28;20140;-63
2021/03/24 15:07:38;;;;;;;19.10;15.57;;;;;;;18.67;28.44;100706.97;10238264;28;20035;-64
2021/03/24 15:12:49;;;;;;;21.30;16.15;;;;;;;18.36;28.94;100708.41;10230043;28;21155;-62
2021/03/24 15:18:11;;;;;;;22.63;17.55;;;;;;;18.11;29.74;100702.06;10225431;28;20272;-64
2021/03/24 15:23:39;;;;;;;20.83;16.50;;;;;;;17.99;29.91;100706.91;10226988;28;20170;-62
2021/03/24 15:28:54;;;;;;;18.88;15.43;;;;;;;17.52;30.64;100699.22;10257262;28;20066;-64
2021/03/24 15:34:11;;;;;;;16.33;13.85;;;;;;;17.34;30.89;100701.06;10228107;28;21793;-64
2021/03/24 15:39:15;;;;;;;18.95;13.40;;;;;;;17.14;31.35;100690.50;10229789;28;20480;-62
2021/03/24 15:44:34;;;;;;;19.83;14.55;;;;;;;17.06;31.54;100682.38;10231566;28;20047;-63
2021/03/24 15:49:49;;;;;;;17.33;14.82;;;;;;;16.90;31.66;100675.00;10236368;28;20047;-62
2021/03/24 15:55:27;;;;;;;19.27;14.15;;;;;;;16.75;32.19;100674.66;10236062;28;21145;-62
2021/03/24 16:00:36;;;;;;;17.25;14.43;;;;;;;16.66;32.20;100672.91;10272851;28;20458;-63
2021/03/24 16:06:00;;;;;;;20.27;14.98;;;;;;;16.47;33.05;100682.81;10272121;28;20047;-65
2021/03/24 16:11:28;;;;;;;16.50;13.15;;;;;;;16.32;32.83;100674.41;10274002;28;20520;-63
2021/03/24 16:16:39;;;;;;;19.13;12.73;;;;;;;16.31;33.12;100656.59;10269330;28;20101;-63
2021/03/24 16:21:58;;;;;;;17.83;12.43;;;;;;;16.28;33.30;100669.50;10297316;28;20050;-64
2021/03/24 16:27:16;;;;;;;17.65;13.57;;;;;;;16.24;33.29;100661.75;10273776;28;20633;-64
2021/03/24 16:32:51;;;;;;;16.95;12.80;;;;;;;16.23;33.92;100660.03;10268534;28;20413;-65
2021/03/24 16:38:01;;;;;;;17.70;14.43;;;;;;;16.16;33.74;100663.47;10273352;28;20051;-62
2021/03/24 16:43:20;;;;;;;15.13;12.45;;;;;;;15.69;34.23;100648.28;10269358;28;20042;-63
2021/03/24 16:48:53;;;;;;;19.67;13.60;;;;;;;15.70;34.35;100663.38;10271435;28;20157;-63
2021/03/24 16:54:15;;;;;;;18.73;14.73;;;;;;;15.54;34.85;100664.00;10231782;28;20278;-64
2021/03/24 16:59:42;;;;;;;17.33;13.50;;;;;;;15.51;35.01;100657.09;10271306;28;20058;-65
2021/03/24 17:04:46;;;;;;;16.70;13.25;;;;;;;15.48;35.36;100660.06;10259559;28;20057;-63
2021/03/24 17:09:59;;;;;;;18.85;15.07;;;;;;;15.30;35.75;100662.63;10235969;28;20489;-63
2021/03/24 17:15:19;;;;;;;21.88;15.05;;;;;;;15.15;35.99;100664.91;10269722;28;20054;-63
2021/03/24 17:20:36;;;;;;;18.08;13.95;;;;;;;15.00;35.96;100650.28;10264013;28;20138;-63
2021/03/24 17:25:40;;;;;;;18.15;14.75;;;;;;;15.00;36.63;100661.00;10230747;28;20043;-64
2021/03/24 17:30:42;;;;;;;18.85;13.65;;;;;;;14.92;36.91;100660.84;10269076;28;20053;-63
2021/03/24 17:35:58;;;;;;;19.45;15.27;;;;;;;14.75;36.84;100652.53;10234062;28;20074;-63
2021/03/24 17:40:59;;;;;;;21.58;13.88;;;;;;;14.79;37.09;100664.66;10235593;28;20043;-63
2021/03/24 17:46:06;;;;;;;20.17;15.77;;;;;;;14.72;37.78;100663.53;10230764;28;20059;-62
2021/03/24 17:51:42;;;;;;;23.90;16.45;;;;;;;14.65;37.52;100667.75;10268406;28;20362;-63
2021/03/24 17:56:53;;;;;;;21.08;16.50;;;;;;;14.51;38.01;100658.25;10256905;28;20089;-62
2021/03/24 18:02:15;;;;;;;26.55;20.60;;;;;;;14.41;38.40;100660.06;10249571;28;20113;-62
2021/03/24 18:07:33;;;;;;;25.17;17.67;;;;;;;14.30;38.58;100655.69;10223990;28;20079;-62
2021/03/24 18:12:41;;;;;;;24.05;16.58;;;;;;;14.29;38.45;100668.25;10231508;28;20572;-62
2021/03/24 18:17:50;;;;;;;22.13;15.52;;;;;;;14.21;38.80;100664.56;10318000;23;20108;-72
2021/03/24 18:22:55;;;;;;;19.45;14.60;;;;;;;14.27;38.53;100669.34;10347268;28;20049;-71
2021/03/24 18:28:05;;;;;;;22.15;16.42;;;;;;;14.21;38.93;100667.22;10323883;28;20358;-70
2021/03/24 18:33:25;;;;;;;18.20;13.70;;;;;;;14.17;39.68;100673.84;10311588;28;20531;-72
2021/03/24 18:38:39;;;;;;;24.25;15.75;;;;;;;14.14;39.75;100673.13;10325097;28;20497;-73
2021/03/24 18:43:42;;;;;;;25.10;17.08;;;;;;;14.13;40.07;100663.41;10318620;28;20508;-71
2021/03/24 18:48:48;;;;;;;22.58;16.60;;;;;;;14.09;39.88;100683.38;10313894;28;20065;-72
2021/03/24 18:54:01;;;;;;;22.10;17.10;;;;;;;13.97;40.31;100677.28;10330789;28;20081;-71
2021/03/24 18:59:35;;;;;;;26.40;18.60;;;;;;;13.89;40.45;100677.13;10324260;28;20047;-71
2021/03/24 19:04:37;;;;;;;;;;;;;;;13.82;40.86;100677.81;10319725;28;20053;-74
2021/03/24 19:09:42;;;;;;;27.05;19.17;;;;;;;13.77;40.88;100683.56;10353614;28;19929;-73
2021/03/24 19:14:48;;;;;;;25.50;18.92;;;;;;;13.70;41.17;100688.59;10321073;28;20079;-73
2021/03/24 19:19:51;;;;;;;26.15;18.73;;;;;;;13.61;40.81;100690.22;10344874;28;20046;-72
2021/03/24 19:25:19;;;;;;;26.08;17.58;;;;;;;13.58;41.44;100698.50;10313308;28;20129;-73
2021/03/24 19:30:41;;;;;;;30.40;18.38;;;;;;;13.39;41.70;100685.91;10309020;28;20580;-70
2021/03/24 19:35:45;;;;;;;25.92;19.10;;;;;;;13.39;41.40;100690.38;10309947;28;20132;-70
2021/03/24 19:40:48;;;;;;;27.92;18.42;;;;;;;13.36;41.46;100701.34;10328992;28;20081;-72
2021/03/24 19:45:49;;;;;;;23.48;17.75;;;;;;;13.25;41.18;100699.53;10322973;28;20472;-73
2021/03/24 19:50:50;;;;;;;22.60;17.63;;;;;;;13.21;41.46;100698.09;10345149;28;20057;-72
2021/03/24 19:55:52;;;;;;;23.65;18.60;;;;;;;13.04;41.83;100692.34;10323086;28;20108;-72
2021/03/24 20:01:02;;;;;;;26.08;17.60;;;;;;;13.13;41.44;100698.75;10338209;28;20172;-72
2021/03/24 20:06:27;;;;;;;21.85;16.88;;;;;;;13.04;42.14;100697.69;10317411;28;20066;-73
2021/03/24 20:11:36;;;;;;;26.75;16.40;;;;;;;12.96;42.03;100694.00;10315301;28;20081;-74
2021/03/24 20:16:37;;;;;;;22.02;16.10;;;;;;;12.82;42.11;100681.75;10316173;28;20055;-72
2021/03/24 20:21:41;;;;;;;23.70;18.38;;;;;;;12.81;42.18;100690.78;10311186;28;20050;-74
2021/03/24 20:26:43;;;;;;;22.25;17.70;;;;;;;12.71;42.34;100680.00;10318725;28;20081;-72
2021/03/24 20:32:11;;;;;;;20.52;15.85;;;;;;;12.73;42.54;100681.56;10327410;28;20054;-72
2021/03/24 20:37:16;;;;;;;20.27;15.90;;;;;;;12.60;43.09;100678.22;10314456;28;20058;-71
2021/03/24 20:42:25;;;;;;;22.52;16.05;;;;;;;12.38;43.44;100674.66;10314287;28;20141;-72
2021/03/24 20:47:28;;;;;;;20.98;15.10;;;;;;;12.35;43.99;100680.19;10317017;28;20050;-72
2021/03/24 20:52:29;;;;;;;22.23;16.80;;;;;;;12.23;43.97;100670.53;10315715;28;20046;-72
2021/03/24 20:57:30;;;;;;;22.15;16.48;;;;;;;12.15;44.43;100672.97;10314862;28;20054;-74
2021/03/24 21:02:33;;;;;;;24.98;18.08;;;;;;;12.03;44.82;100670.31;10313321;28;20109;-73
2021/03/24 21:07:34;;;;;;;26.40;19.17;;;;;;;12.00;44.86;100665.22;10310472;28;20081;-72
2021/03/24 21:12:35;;;;;;;23.83;17.98;;;;;;;11.91;45.35;100655.25;10320091;28;20073;-72
2021/03/24 21:17:36;;;;;;;23.98;16.67;;;;;;;11.87;45.17;100656.47;10320157;28;20054;-73
2021/03/24 21:22:37;;;;;;;23.00;17.65;;;;;;;11.85;45.65;100661.09;10317452;28;20050;-73
2021/03/24 21:27:38;;;;;;;27.20;19.27;;;;;;;11.68;46.13;100659.75;10314069;28;20336;-73
2021/03/24 21:32:39;;;;;;;22.08;18.25;;;;;;;11.55;45.65;100653.69;10321817;28;20151;-74
2021/03/24 21:37:43;;;;;;;22.83;16.90;;;;;;;11.61;46.57;100659.38;10303887;28;20123;-73
2021/03/24 21:42:44;;;;;;;23.15;17.77;;;;;;;11.55;47.06;100654.53;10344646;28;20050;-75
2021/03/24 21:47:54;;;;;;;34.13;24.77;;;;;;;11.30;47.18;100624.47;10339002;28;20057;-73
2021/03/24 21:52:55;;;;;;;43.15;30.70;;;;;;;11.40;47.57;100645.06;10332134;28;20068;-74
2021/03/24 21:58:12;;;;;;;37.97;28.83;;;;;;;11.31;47.60;100651.97;10327381;28;20053;-72
2021/03/24 22:03:37;;;;;;;26.65;22.92;;;;;;;11.11;48.55;100657.00;10364547;28;20226;-74
2021/03/24 22:08:38;;;;;;;25.10;18.20;;;;;;;10.90;48.41;100647.97;10379785;28;20137;-71
2021/03/24 22:14:16;;;;;;;17.88;15.23;;;;;;;10.85;48.30;100650.97;10366319;28;20045;-70
2021/03/24 22:19:17;;;;;;;19.13;15.73;;;;;;;10.74;48.58;100650.94;10340049;28;20053;-72
2021/03/24 22:24:18;;;;;;;22.25;17.10;;;;;;;10.60;48.65;100644.84;10361581;28;20054;-72
2021/03/24 22:29:36;;;;;;;19.73;15.68;;;;;;;10.57;48.87;100641.56;10356530;28;20084;-71
2021/03/24 22:34:41;;;;;;;19.30;15.90;;;;;;;10.48;48.97;100645.75;10358429;28;20045;-71
2021/03/24 22:39:52;;;;;;;21.15;17.20;;;;;;;10.44;49.20;100652.25;10360487;28;20104;-73
2021/03/24 22:44:54;;;;;;;22.10;16.25;;;;;;;10.34;49.64;100645.91;10365616;28;20128;-71
2021/03/24 22:50:29;;;;;;;20.88;16.95;;;;;;;10.29;49.90;100650.69;10353203;28;20073;-74
2021/03/24 22:55:33;;;;;;;26.27;17.30;;;;;;;10.20;49.74;100645.06;10360848;28;20064;-73
2021/03/24 23:00:35;;;;;;;21.37;16.53;;;;;;;10.13;50.07;100653.63;10363377;28;20068;-73
2021/03/24 23:05:36;;;;;;;18.95;16.95;;;;;;;10.02;50.20;100633.13;10362944;28;20113;-72
2021/03/24 23:10:38;;;;;;;20.63;16.15;;;;;;;10.00;50.38;100637.72;10352681;28;20097;-69
2021/03/24 23:15:59;;;;;;;20.63;16.05;;;;;;;9.94;50.72;100646.97;10378123;28;20392;-71
2021/03/24 23:21:14;;;;;;;23.15;16.30;;;;;;;9.83;50.74;100629.13;10366321;28;20049;-71
2021/03/24 23:26:17;;;;;;;21.67;16.88;;;;;;;9.79;50.79;100632.09;10354854;28;20053;-72
2021/03/24 23:31:19;;;;;;;20.60;16.20;;;;;;;9.76;51.15;100632.31;10367113;28;20093;-73